Hoppa till innehåll

METAR väder och rapporter - ESGG

Nedan listas information från vald flygplats. Andra METARs finns längre ned på sidan. Kontakta oss om någon saknas eller skriv in egen ICAO-kod.

Andra intressanta METARs

Klicka på önskad rubrik nedan för att visa nuvarande väder för den platsen.

Avstånd från stationen: NO 27kmESGG - Göteborg (Landvetter)
Uppdaterad: 2022-01-28 15:50
 Vind från V
Vind: V 7 km/h
Temperatur: 2°C
Vindavkylning: 0°C
Daggpunkt: -5°C
Luftfuktighet: 60%
Barometer: 1022 hPa
Summering: Klart
Sikt: mer än 10 km
2022/01/28 14:50 ESGG 281450Z 26004KT CAVOK 02/M05 Q1022
Klart
Klart
  Visa detaljer för Göteborg (Landvetter)
Avstånd från stationen: N 28kmESGP - Göteborg (Säve)
Uppdaterad: 2022-01-28 16:20
 Vind från SSV
Vind: SSV 6 km/h
Temperatur: 1°C
Daggpunkt: -4°C
Luftfuktighet: 70%
Barometer: 1022 hPa
Summering: Klart
Sikt: mer än 10 km
2022/01/28 15:20 ESGP 281520Z 20003KT CAVOK 01/M04 Q1022
Klart
Klart
  Visa detaljer för Göteborg (Säve)
Avstånd från stationen: NO 419kmESSA - Stockholm (Arlanda)
Uppdaterad: 2022-01-28 16:20
 Vind från VNV
Vind: VNV 17 km/h
Temperatur: -1°C
Vindavkylning: -6°C
Daggpunkt: -7°C
Luftfuktighet: 64%
Barometer: 1015 hPa
Summering: Klart
Sikt: mer än 10 km
2022/01/28 15:20 ESSA 281520Z 29009KT CAVOK M01/M07 Q1015 NOSIG
Klart
Klart
  Visa detaljer för Stockholm (Arlanda)
Avstånd från stationen: ONO 404kmESSB - Stockholm (Bromma)
Uppdaterad: 2022-01-28 16:20
 Vind från VNV
Vind: VNV 17 km/h
Temperatur: 0°C
Vindavkylning: -4°C
Daggpunkt: -6°C
Luftfuktighet: 64%
Barometer: 1016 hPa
Summering: Klart
Sikt: mer än 10 km
2022/01/28 15:20 ESSB 281520Z 29009KT CAVOK 00/M06 Q1016
Klart
Klart
  Visa detaljer för Stockholm (Bromma)
Avstånd från stationen: ONO 323kmESKN - Stockholm (Skavsta)
Uppdaterad: 2022-01-28 16:20
 Vind från VNV
Vind: VNV 20 km/h
Temperatur: 1°C
Vindavkylning: -4°C
Daggpunkt: -6°C
Luftfuktighet: 60%
Barometer: 1017 hPa
Summering: Klart
Sikt: mer än 10 km
2022/01/28 15:20 ESKN 281520Z 29011KT CAVOK 01/M06 Q1017
Klart
Klart
  Visa detaljer för Stockholm (Skavsta)
Avstånd från stationen: SSO 238kmESMS - Malmö flygplats (Sturup)
Uppdaterad: 2022-01-28 16:20
 Vind från NV
Vind: NV 11 km/h
Temperatur: 2°C
Vindavkylning: -1°C
Daggpunkt: -6°C
Luftfuktighet: 56%
Barometer: 1024 hPa
Summering: Klart
Sikt: mer än 10 km
2022/01/28 15:20 ESMS 281520Z 31006KT 290V350 CAVOK 02/M06 Q1024
Klart
Klart
  Visa detaljer för Malmö flygplats (Sturup)
Avstånd från stationen: O 382kmESSV - Visby flygplats
Uppdaterad: 2022-01-28 16:20
 Vind från NV
Vind: NV 39 km/h
Temperatur: 2°C
Vindavkylning: -4°C
Daggpunkt: -4°C
Luftfuktighet: 65%
Barometer: 1016 hPa
Summering: Klart
Sikt: mer än 10 km
2022/01/28 15:20 ESSV 281520Z 32021KT CAVOK 02/M04 Q1016
Klart
Klart
  Visa detaljer för Visby flygplats
Avstånd från stationen: NNO 92kmESGT - Trollhättan
Uppdaterad: 2022-01-28 16:20
 Vind från SV
Vind: SV 9 km/h
Temperatur: 2°C
Vindavkylning: -1°C
Daggpunkt: -6°C
Luftfuktighet: 56%
Barometer: 1021 hPa
Moln: Klart
Sikt: 10 km
2022/01/28 15:20 ESGT 281520Z AUTO 22005KT 180V240 9999 NCD 02/M06 Q1021
Klart
Klart
  Visa detaljer för Trollhättan
Avstånd från stationen: ONO 129kmESGJ - Jönköpings flygplats
Uppdaterad: 2022-01-28 16:20
 Vind från V
Vind: V 9 km/h
Temperatur: 0°C
Vindavkylning: -3°C
Daggpunkt: -7°C
Luftfuktighet: 60%
Barometer: 1020 hPa
Moln: Klart
Sikt: 10 km
2022/01/28 15:20 ESGJ 281520Z AUTO 27005KT 9999 NCD M00/M07 Q1020
Klart
Klart
  Visa detaljer för Jönköpings flygplats
Avstånd från stationen: NNO 229kmESOK - Karlstad
Uppdaterad: 2022-01-28 16:20
 Vind från SV
Vind: SV 11 km/h
Temperatur: 1°C
Vindavkylning: -2°C
Daggpunkt: -7°C
Luftfuktighet: 56%
Barometer: 1019 hPa
Summering: Klart
Sikt: mer än 10 km
2022/01/28 15:20 ESOK 281520Z 23006KT CAVOK 01/M07 Q1019
Klart
Klart
  Visa detaljer för Karlstad
Avstånd från stationen: N 643kmESNZ - Östersund (Frösön)
Uppdaterad: 2022-01-28 16:20
 Vind från S
Vind: S 15 km/h
Temperatur: -2°C
Vindavkylning: -7°C
Daggpunkt: -6°C
Luftfuktighet: 74%
Barometer: 1008 hPa
Moln: Några få moln
Sikt: 10 km
Molninformation: Några få moln 1615 m
2022/01/28 15:20 ESNZ 281520Z 18008KT 9999 FEW053 M02/M06 Q1008
Några få moln
Några få moln
  Visa detaljer för Östersund (Frösön)
Avstånd från stationen: SSO 216kmEKCH - Köpenhamn (Kastrup)
Uppdaterad: 2022-01-28 16:20
 Vind från VNV
Vind: VNV 13 km/h
Temperatur: 5°C
Vindavkylning: 2°C
Daggpunkt: -9°C
Luftfuktighet: 36%
Barometer: 1025 hPa
Moln: Klart
Sikt: 10 km
2022/01/28 15:20 EKCH 281520Z AUTO 30007KT 9999 NCD 05/M09 Q1025 NOSIG
Klart
Klart
  Visa detaljer för Köpenhamn (Kastrup)
Avstånd från stationen: SV 263kmEKBI - Billund Airport
Uppdaterad: 2022-01-28 16:20
 Vind från V
Vind: V 13 km/h
Temperatur: 4°C
Vindavkylning: 1°C
Daggpunkt: 0°C
Luftfuktighet: 75%
Barometer: 1026 hPa
Moln: Övervägande molnigt
Sikt: 10 km
Molninformation: Övervägande molnigt 1036 m
2022/01/28 15:20 EKBI 281520Z AUTO 26007KT 9999 BKN034/// 04/M00 Q1026
Övervägande molnigt
Övervägande molnigt
  Visa detaljer för Billund Airport
Avstånd från stationen: N 302kmENGM - Oslo (Gardermoen)
Uppdaterad: 2022-01-28 16:20
 Vind från S
Vind: S 13 km/h
Temperatur: 0°C
Vindavkylning: -4°C
Daggpunkt: -8°C
Luftfuktighet: 55%
Barometer: 1017 hPa
Summering: Klart
Sikt: mer än 10 km
2022/01/28 15:20 ENGM 281520Z 19007KT CAVOK M00/M08 Q1017 NOSIG
Klart
Klart
  Visa detaljer för Oslo (Gardermoen)
Avstånd från stationen: NO 540kmEFMA - Mariehamn / Åland
Uppdaterad: 2022-01-28 16:20
 Vind från NNV
Vind: NNV 20 km/h
Temperatur: 0°C
Vindavkylning: -6°C
Daggpunkt: -6°C
Luftfuktighet: 64%
Barometer: 1013 hPa
Summering: Klart
Sikt: mer än 10 km
2022/01/28 15:20 EFMA 281520Z AUTO 33011KT CAVOK M00/M06 Q1013
Klart
Klart
  Visa detaljer för Mariehamn / Åland
Avstånd från stationen: S 558kmEDDT - Berlin (Tegel), Germany
Uppdaterad: 2020-11-09 07:50
Ej aktuell
 Vind från O
Vind: O 11 km/h
Temperatur: 6°C
Vindavkylning: 4°C
Daggpunkt: 5°C
Luftfuktighet: 93%
Barometer: 1027 hPa
Summering: Dimmigt
Moln: Genommulet
Sikt: 3 km
Molninformation: Genommulet 91 m
2020/11/09 06:50 EDDT 090650Z 09006KT 050V120 3000 BR OVC003 06/05 Q1027
Dimmigt, Genommulet
Dimmigt
Genommulet
  Visa detaljer för Berlin (Tegel), Germany
Avstånd från stationen: SV 737kmEHAM - Amsterdam (Schiphol)
Uppdaterad: 2022-01-28 16:25
 Vind från VSV
Vind: VSV 22 km/h
Temperatur: 7°C
Vindavkylning: 4°C
Daggpunkt: 5°C
Luftfuktighet: 87%
Barometer: 1032 hPa
Moln: Några få moln
Sikt: 10 km
Molninformation: Några få moln 396 m
2022/01/28 15:25 EHAM 281525Z 25012KT 210V270 9999 FEW013 07/05 Q1032 NOSIG
Några få moln
Några få moln
  Visa detaljer för Amsterdam (Schiphol)
Avstånd från stationen: ONO 808kmEFHK - Helsingfors (Vantaa)
Uppdaterad: 2022-01-28 16:20
 Vind från NNV
Vind: NNV 24 km/h
Temperatur: -2°C
Vindavkylning: -9°C
Daggpunkt: -3°C
Luftfuktighet: 93%
Barometer: 1005 hPa
Moln: Övervägande molnigt
Sikt: 10 km
Molninformation: Några få moln 457 m
Övervägande molnigt 1372 m
2022/01/28 15:20 EFHK 281520Z 33013KT 9999 FEW015 BKN045 M02/M03 Q1005 NOSIG
Övervägande molnigt
Övervägande molnigt
  Visa detaljer för Helsingfors (Vantaa)
Avstånd från stationen: SSV 537kmEDDW - Bremen
Uppdaterad: 2022-01-28 16:20
 Vind från V
Vind: V 15 km/h
Temperatur: 6°C
Vindavkylning: 3°C
Daggpunkt: 1°C
Luftfuktighet: 71%
Barometer: 1031 hPa
Moln: Övervägande molnigt
Sikt: 10 km
Molninformation: Övervägande molnigt 1036 m
2022/01/28 15:20 EDDW 281520Z 28008KT 9999 BKN034 06/01 Q1031 NOSIG
Övervägande molnigt
Övervägande molnigt
  Visa detaljer för Bremen
Avstånd från stationen: SSV 861kmEDDF - Frankfurt am Main
Uppdaterad: 2022-01-28 16:20
 Vind från NV
Vind: NV 13 km/h
Temperatur: 7°C
Vindavkylning: 5°C
Daggpunkt: 0°C
Luftfuktighet: 61%
Barometer: 1033 hPa
Moln: Några få moln
Sikt: 10 km
Molninformation: Några få moln 1067 m
2022/01/28 15:20 EDDF 281520Z 32007KT 9999 FEW035 07/00 Q1033 NOSIG
Några få moln
Några få moln
  Visa detaljer för Frankfurt am Main
Avstånd från stationen: SV 880kmEBBR - Bryssel international
Uppdaterad: 2022-01-28 16:20
 Vind från VSV
Vind: VSV 7 km/h
Temperatur: 6°C
Vindavkylning: 4°C
Daggpunkt: 4°C
Luftfuktighet: 87%
Barometer: 1035 hPa
Moln: Övervägande molnigt
Sikt: 6 km
Molninformation: Övervägande molnigt 213 m
2022/01/28 15:20 EBBR 281520Z 25004KT 6000 BKN007 06/04 Q1035 NOSIG
Övervägande molnigt
Övervägande molnigt
  Visa detaljer för Bryssel international
Avstånd från stationen: SV 738kmEHAM - Amsterdam (Schiphol)
Uppdaterad: 2022-01-28 16:25
 Vind från VSV
Vind: VSV 22 km/h
Temperatur: 7°C
Vindavkylning: 4°C
Daggpunkt: 5°C
Luftfuktighet: 87%
Barometer: 1032 hPa
Moln: Några få moln
Sikt: 10 km
Molninformation: Några få moln 396 m
2022/01/28 15:25 EHAM 281525Z 25012KT 210V270 9999 FEW013 07/05 Q1032 NOSIG
Några få moln
Några få moln
  Visa detaljer för Amsterdam (Schiphol)
Avstånd från stationen: SV 1044kmEGLL - London (Heathrow)
Uppdaterad: 2022-01-28 16:20
 Vind från VSV
Vind: VSV 19 km/h
Temperatur: 9°C
Vindavkylning: 6°C
Daggpunkt: 4°C
Luftfuktighet: 71%
Barometer: 1034 hPa
Moln: Klart
Sikt: 10 km
2022/01/28 15:20 EGLL 281520Z AUTO 25010KT 9999 NCD 09/04 Q1034 NOSIG
Klart
Klart
  Visa detaljer för London (Heathrow)
Avstånd från stationen: SV 1132kmLFPG - Paris (Charles de Gaulle)
Uppdaterad: 2022-01-28 16:00
 Vind från SV
Vind: SV 17 km/h
Temperatur: 7°C
Vindavkylning: 4°C
Daggpunkt: 4°C
Luftfuktighet: 81%
Barometer: 1036 hPa
Moln: Övervägande molnigt
Sikt: 10 km
Molninformation: Övervägande molnigt 640 m
2022/01/28 15:00 LFPG 281500Z 22009KT 9999 BKN021 07/04 Q1036 NOSIG
Övervägande molnigt
Övervägande molnigt
  Visa detaljer för Paris (Charles de Gaulle)
Avstånd från stationen: SSV 1142kmLSZH - Zürich Airport
Uppdaterad: 2022-01-28 16:20
 Vind från NV
Vind: NV 15 km/h
Temperatur: 6°C
Vindavkylning: 3°C
Daggpunkt: -1°C
Luftfuktighet: 61%
Barometer: 1035 hPa
Moln: Några få moln
Sikt: 10 km
Molninformation: Några få moln 823 m
2022/01/28 15:20 LSZH 281520Z 31008KT 9999 FEW027 06/M01 Q1035 NOSIG
Några få moln
Några få moln
  Visa detaljer för Zürich Airport
Avstånd från stationen: S 1749kmLIRF - Rome Airport (Fiumicino - Leonardo da Vinci)
Uppdaterad: 2022-01-28 16:20
 Vind från VNV
Vind: VNV 13 km/h
Temperatur: 13°C
Daggpunkt: 8°C
Luftfuktighet: 72%
Barometer: 1023 hPa
Moln: Några få moln
Sikt: 10 km
Molninformation: Några få moln 914 m
2022/01/28 15:20 LIRF 281520Z 30007KT 9999 FEW030 13/08 Q1023 NOSIG
Några få moln
Några få moln
  Visa detaljer för Rome Airport (Fiumicino - Leonardo da Vinci)
Avstånd från stationen: SO 2679kmLTAI - Antalya
Uppdaterad: 2022-01-28 16:20
 Vind från varierande
Vind: varierande 4 km/h
Temperatur: 8°C
Daggpunkt: -6°C
Luftfuktighet: 37%
Barometer: 1019 hPa
Summering: Klart
Sikt: mer än 10 km
2022/01/28 15:20 LTAI 281520Z VRB02KT CAVOK 08/M06 Q1019 NOSIG
Klart
Klart
  Visa detaljer för Antalya
Avstånd från stationen: VSV 6074kmKJFK - New Your (JFK)
Uppdaterad: 2022-01-28 16:03
 Vind från SSV
Vind: SSV 9 km/h
Temperatur: -2°C
Vindavkylning: -6°C
Daggpunkt: -3°C
Luftfuktighet: 93%
Barometer: 1021.7 hPa
Summering: Light snow, Dimmigt
Moln: Genommulet
Sikt: 10 km
Molninformation: Övervägande molnigt 244 m
Övervägande molnigt 671 m
Genommulet 1067 m
2022/01/28 15:03 KJFK 281503Z 21005KT 6SM -SN BR BKN008 BKN022 OVC035 M02/M03 A3017 RMK AO2 P0000 T10171033
Light snow, Dimmigt, Genommulet
Light snow
Dimmigt
Genommulet
  Visa detaljer för New Your (JFK)
Avstånd från stationen: VSV 8848kmKLAX - Los Angeles International Airport
Uppdaterad: 2022-01-28 15:53
 Vind från varierande
Vind: varierande 7 km/h
Temperatur: 14°C
Daggpunkt: -5°C
Luftfuktighet: 27%
Barometer: 1024.4 hPa
Moln: Övervägande molnigt
Sikt: 16 km
Molninformation: Några få moln 7315 m
Övervägande molnigt 9144 m
2022/01/28 14:53 KLAX 281453Z VRB04KT 10SM FEW240 BKN300 14/M05 A3025 RMK AO2 SLP241 T01391050 53014
Övervägande molnigt
Övervägande molnigt
  Visa detaljer för Los Angeles International Airport
Avstånd från stationen: SO 4968kmOMDB - Dubai International Airport
Uppdaterad: 2022-01-28 16:00
 Vind från NV
Vind: NV 19 km/h
Temperatur: 23°C
Daggpunkt: 17°C
Luftfuktighet: 69%
Barometer: 1018 hPa
Summering: Klart
Sikt: mer än 10 km
2022/01/28 15:00 OMDB 281500Z 31010KT CAVOK 23/17 Q1018 NOSIG
Klart
Klart
  Visa detaljer för Dubai International Airport
Avstånd från stationen: OSO 8570kmRJTT - Tokyo International Airport
Uppdaterad: 2022-01-28 16:00
 Vind från N
Vind: N 31 km/h
Temperatur: 6°C
Vindavkylning: 1°C
Daggpunkt: -5°C
Luftfuktighet: 46%
Barometer: 1014 hPa
Moln: Några få moln
Sikt: 10 km
Molninformation: Några få moln 1524 m
2022/01/28 15:00 RJTT 281500Z 35017KT 9999 FEW050 06/M05 Q1014 NOSIG
Några få moln
Några få moln
  Visa detaljer för Tokyo International Airport
Avstånd från stationen: OSO 7125kmZBAA - Peking (Beijing Capital)
Uppdaterad: 2022-01-28 16:00
 Vind från NNV
Vind: NNV 11 km/h
Temperatur: -7°C
Vindavkylning: -12°C
Daggpunkt: -14°C
Luftfuktighet: 58%
Barometer: 1030 hPa
Summering: Klart
Sikt: mer än 10 km
2022/01/28 15:00 ZBAA 281500Z 34003MPS CAVOK M07/M14 Q1030 NOSIG
Klart
Klart
  Visa detaljer för Peking (Beijing Capital)
VÄDER KURIOSA -  RecyclingAmericans threw away 38 billion plastic water bottles in 2006. A million and a half barrels of oil - enough to fuel 100,000 cars for a year - were used to produce the bottles.